createdAt,value
2019-02-04T00:00:38.430Z,28.23
2019-02-04T00:01:20.425Z,28.23
2019-02-04T00:01:56.850Z,28.24
2019-02-04T00:02:33.065Z,28.24
2019-02-04T00:03:09.828Z,28.26
2019-02-04T00:03:46.000Z,28.24
2019-02-04T00:04:22.431Z,28.25
2019-02-04T00:04:58.551Z,28.27
2019-02-04T00:05:34.921Z,28.28
2019-02-04T00:06:11.238Z,28.28
2019-02-04T00:06:47.335Z,28.29
2019-02-04T00:07:23.510Z,28.30
2019-02-04T00:07:59.662Z,28.30
2019-02-04T00:08:35.891Z,28.32
2019-02-04T00:09:12.175Z,28.34
2019-02-04T00:09:48.237Z,28.35
2019-02-04T00:10:24.497Z,28.36
2019-02-04T00:11:00.778Z,28.39
2019-02-04T00:11:37.044Z,28.40
2019-02-04T00:12:13.267Z,28.41
2019-02-04T00:12:49.363Z,28.43
2019-02-04T00:13:25.889Z,28.45
2019-02-04T00:14:02.062Z,28.47
2019-02-04T00:14:38.268Z,28.48
2019-02-04T00:15:14.474Z,28.49
2019-02-04T00:15:50.765Z,28.51
2019-02-04T00:16:26.913Z,28.53
2019-02-04T00:17:03.228Z,28.56
2019-02-04T00:17:39.312Z,28.57
2019-02-04T00:18:15.468Z,28.58
2019-02-04T00:18:51.800Z,28.59
2019-02-04T00:19:28.050Z,28.63
2019-02-04T00:20:04.578Z,28.64
2019-02-04T00:20:41.031Z,28.66
2019-02-04T00:21:17.137Z,28.69
2019-02-04T00:21:53.243Z,28.70
2019-02-04T00:22:29.321Z,28.72
2019-02-04T00:23:05.456Z,28.74
2019-02-04T00:23:41.902Z,28.76
2019-02-04T00:24:18.034Z,28.79
2019-02-04T00:24:54.518Z,28.81
2019-02-04T00:25:30.829Z,28.83
2019-02-04T00:26:07.185Z,28.86
2019-02-04T00:26:51.430Z,28.87
2019-02-04T00:27:21.458Z,28.89
2019-02-04T00:27:57.610Z,28.93
2019-02-04T00:28:33.721Z,28.93
2019-02-04T00:29:09.787Z,28.95
2019-02-04T00:29:45.910Z,28.98
2019-02-04T00:30:22.255Z,29.00
2019-02-04T00:30:58.492Z,29.04
2019-02-04T00:31:34.632Z,29.04
2019-02-04T00:32:10.753Z,29.06
2019-02-04T00:32:46.845Z,29.08
2019-02-04T00:33:23.051Z,29.10
2019-02-04T00:33:59.109Z,29.18
2019-02-04T00:34:35.381Z,29.18
2019-02-04T00:35:12.154Z,29.23
2019-02-04T00:35:48.432Z,29.23
2019-02-04T00:36:24.518Z,29.27
2019-02-04T00:37:00.826Z,29.30
2019-02-04T00:37:37.086Z,29.34
2019-02-04T00:38:14.067Z,29.37
2019-02-04T00:38:50.112Z,29.42
2019-02-04T00:39:26.418Z,29.40
2019-02-04T00:40:02.714Z,29.44
2019-02-04T00:40:38.802Z,29.45
2019-02-04T00:41:15.022Z,29.45
2019-02-04T00:41:51.237Z,29.49
2019-02-04T00:42:27.198Z,29.59
2019-02-04T00:43:03.531Z,29.59
2019-02-04T00:43:39.623Z,29.67
2019-02-04T00:44:15.803Z,29.67
2019-02-04T00:44:51.999Z,29.71
2019-02-04T00:45:28.547Z,29.74
2019-02-04T00:46:05.078Z,29.70
2019-02-04T00:46:51.773Z,29.87
2019-02-04T00:47:19.513Z,29.90
2019-02-04T00:47:55.862Z,29.95
2019-02-04T00:48:32.085Z,29.98
2019-02-04T00:49:08.271Z,29.98
2019-02-04T00:49:44.327Z,30.06
2019-02-04T00:50:20.606Z,30.11
2019-02-04T00:50:56.837Z,30.16
2019-02-04T00:51:33.178Z,30.16
2019-02-04T00:52:09.360Z,30.16
2019-02-04T00:52:45.683Z,30.29
2019-02-04T00:53:21.923Z,30.29
2019-02-04T00:53:58.030Z,30.29
2019-02-04T00:54:34.191Z,30.35
2019-02-04T00:55:10.747Z,30.35
2019-02-04T00:55:47.194Z,30.46
2019-02-04T00:56:23.502Z,30.46
2019-02-04T00:57:00.012Z,30.51
2019-02-04T00:57:36.294Z,30.54
2019-02-04T00:58:12.593Z,30.61
2019-02-04T00:58:48.765Z,30.66
2019-02-04T00:59:25.006Z,30.71
2019-02-04T01:00:01.269Z,30.71
2019-02-04T01:00:37.368Z,30.73
2019-02-04T01:01:13.513Z,30.75
2019-02-04T01:01:49.645Z,30.84
2019-02-04T01:02:25.775Z,30.84
2019-02-04T01:03:02.066Z,30.87
2019-02-04T01:03:38.435Z,30.87
2019-02-04T01:04:14.794Z,30.90
2019-02-04T01:04:51.045Z,30.93
2019-02-04T01:05:27.238Z,30.97
2019-02-04T01:06:03.415Z,30.97
2019-02-04T01:06:39.828Z,31.02
2019-02-04T01:07:16.209Z,31.04
2019-02-04T01:07:52.421Z,31.05
2019-02-04T01:08:28.924Z,31.09
2019-02-04T01:09:06.346Z,31.11
2019-02-04T01:09:42.440Z,31.15
2019-02-04T01:10:20.602Z,31.19
2019-02-04T01:10:56.828Z,31.22
2019-02-04T01:11:33.107Z,31.25
2019-02-04T01:12:09.372Z,31.28
2019-02-04T01:12:45.523Z,31.32
2019-02-04T01:13:21.662Z,31.35
2019-02-04T01:13:57.780Z,31.37
2019-02-04T01:14:34.078Z,31.41
2019-02-04T01:15:10.547Z,31.43
2019-02-04T01:15:46.902Z,31.44
2019-02-04T01:16:22.984Z,31.44
2019-02-04T01:17:03.567Z,31.46
2019-02-04T01:17:37.158Z,31.47
2019-02-04T01:18:13.414Z,31.50
2019-02-04T01:18:49.805Z,31.52
2019-02-04T01:19:26.115Z,31.55
2019-02-04T01:20:02.265Z,31.59
2019-02-04T01:20:38.506Z,31.60
2019-02-04T01:21:14.549Z,31.60
2019-02-04T01:21:50.758Z,31.64
2019-02-04T01:22:26.927Z,31.69
2019-02-04T01:23:03.135Z,31.73
2019-02-04T01:23:39.369Z,31.77
2019-02-04T01:24:15.510Z,31.79
2019-02-04T01:24:51.732Z,31.84
2019-02-04T01:25:27.841Z,31.87
2019-02-04T01:26:03.886Z,31.90
2019-02-04T01:26:40.219Z,31.95
2019-02-04T01:27:16.463Z,32.01
2019-02-04T01:27:54.334Z,32.07
2019-02-04T01:28:30.504Z,32.12
2019-02-04T01:29:07.093Z,32.15
2019-02-04T01:29:43.429Z,32.18
2019-02-04T01:30:20.236Z,32.20
2019-02-04T01:30:56.536Z,32.23
2019-02-04T01:31:32.830Z,32.25
2019-02-04T01:32:08.955Z,32.25
2019-02-04T01:32:45.024Z,32.31
2019-02-04T01:33:21.291Z,32.35
2019-02-04T01:33:57.412Z,32.36
2019-02-04T01:34:33.504Z,32.38
2019-02-04T01:35:09.885Z,32.40
2019-02-04T01:35:46.060Z,32.44
2019-02-04T01:36:22.271Z,32.45
2019-02-04T01:36:58.759Z,32.49
2019-02-04T01:37:35.013Z,32.52
2019-02-04T01:38:11.600Z,32.56
2019-02-04T01:38:47.934Z,32.59
2019-02-04T01:39:24.012Z,32.62
2019-02-04T01:40:00.220Z,32.66
2019-02-04T01:40:36.456Z,32.69
2019-02-04T01:41:13.294Z,32.73
2019-02-04T01:41:49.514Z,32.77
2019-02-04T01:42:25.701Z,32.82
2019-02-04T01:43:02.009Z,32.85
2019-02-04T01:43:38.112Z,32.86
2019-02-04T01:44:14.159Z,32.90
2019-02-04T01:44:50.308Z,32.94
2019-02-04T01:45:26.921Z,32.96
2019-02-04T01:46:03.038Z,32.98
2019-02-04T01:46:39.177Z,32.99
2019-02-04T01:47:15.505Z,33.00
2019-02-04T01:47:51.681Z,33.01
2019-02-04T01:48:28.163Z,33.03
2019-02-04T01:49:04.378Z,33.06
2019-02-04T01:49:40.475Z,33.10
2019-02-04T01:50:18.537Z,33.08
2019-02-04T01:50:54.753Z,33.14
2019-02-04T01:51:30.879Z,33.17
2019-02-04T01:52:07.092Z,33.22
2019-02-04T01:52:43.270Z,33.22
2019-02-04T01:53:19.616Z,33.20
2019-02-04T01:53:55.999Z,33.25
2019-02-04T01:54:32.081Z,33.29
2019-02-04T01:55:09.347Z,33.31
2019-02-04T01:55:45.458Z,33.28
2019-02-04T01:56:21.612Z,33.29
2019-02-04T01:56:57.821Z,33.30
2019-02-04T01:57:33.954Z,33.31
2019-02-04T01:58:10.255Z,33.35
2019-02-04T01:58:46.676Z,33.37
2019-02-04T01:59:22.825Z,33.41
2019-02-04T01:59:59.086Z,33.47
2019-02-04T02:00:36.936Z,33.48
2019-02-04T02:01:13.198Z,33.52
2019-02-04T02:01:49.353Z,33.56
2019-02-04T02:02:25.508Z,33.55
2019-02-04T02:03:01.665Z,33.59
2019-02-04T02:03:37.798Z,33.60
2019-02-04T02:04:13.909Z,33.55
2019-02-04T02:04:50.174Z,33.59
2019-02-04T02:05:26.291Z,33.62
2019-02-04T02:06:02.386Z,33.62
2019-02-04T02:06:38.504Z,33.65
2019-02-04T02:07:14.867Z,33.68
2019-02-04T02:07:50.869Z,33.71
2019-02-04T02:08:26.956Z,33.75
2019-02-04T02:09:05.216Z,33.80
2019-02-04T02:09:41.333Z,33.85
2019-02-04T02:10:18.960Z,33.87
2019-02-04T02:10:55.087Z,33.91
2019-02-04T02:11:31.302Z,33.94
2019-02-04T02:12:07.568Z,33.96
2019-02-04T02:12:43.783Z,34.00
2019-02-04T02:13:20.027Z,33.99
2019-02-04T02:13:56.371Z,34.02
2019-02-04T02:14:32.680Z,34.08
2019-02-04T02:15:08.798Z,34.09
2019-02-04T02:15:45.234Z,34.13
2019-02-04T02:16:21.479Z,34.12
2019-02-04T02:16:57.694Z,34.16
2019-02-04T02:17:33.921Z,34.16
2019-02-04T02:18:10.355Z,34.16
2019-02-04T02:18:46.482Z,34.14
2019-02-04T02:19:22.790Z,34.10
2019-02-04T02:19:58.841Z,34.09
2019-02-04T02:20:35.377Z,34.13
2019-02-04T02:21:11.434Z,34.16
2019-02-04T02:21:47.599Z,34.21
2019-02-04T02:22:23.943Z,34.25
2019-02-04T02:23:00.177Z,34.26
2019-02-04T02:23:36.279Z,34.30
2019-02-04T02:24:12.516Z,34.32
2019-02-04T02:24:48.736Z,34.32
2019-02-04T02:25:24.976Z,34.35
2019-02-04T02:26:01.227Z,34.29
2019-02-04T02:26:37.585Z,34.30
2019-02-04T02:27:13.839Z,34.32
2019-02-04T02:27:49.912Z,34.30
2019-02-04T02:28:26.073Z,34.32
2019-02-04T02:29:02.181Z,34.33
2019-02-04T02:29:38.788Z,34.34
2019-02-04T02:30:18.947Z,34.37
2019-02-04T02:30:55.271Z,34.38
2019-02-04T02:31:31.605Z,34.33
2019-02-04T02:32:07.911Z,34.38
2019-02-04T02:32:44.279Z,34.39
2019-02-04T02:33:20.323Z,34.43
2019-02-04T02:33:56.470Z,34.43
2019-02-04T02:34:32.758Z,34.42
2019-02-04T02:35:09.548Z,34.43
2019-02-04T02:35:45.744Z,34.48
2019-02-04T02:36:21.854Z,34.51
2019-02-04T02:36:58.041Z,34.55
2019-02-04T02:37:34.201Z,34.57
2019-02-04T02:38:10.428Z,34.57
2019-02-04T02:38:46.697Z,34.59
2019-02-04T02:39:22.771Z,34.52
2019-02-04T02:39:59.163Z,34.56
2019-02-04T02:40:36.216Z,34.59
2019-02-04T02:41:12.372Z,34.60
2019-02-04T02:41:48.484Z,34.60
2019-02-04T02:42:24.695Z,34.63
2019-02-04T02:43:00.912Z,34.66
2019-02-04T02:43:37.083Z,34.68
2019-02-04T02:44:13.298Z,34.70
2019-02-04T02:44:49.418Z,34.71
2019-02-04T02:45:25.493Z,34.75
2019-02-04T02:46:01.745Z,34.73
2019-02-04T02:46:37.860Z,34.75
2019-02-04T02:47:14.099Z,34.74
2019-02-04T02:47:50.307Z,34.74
2019-02-04T02:48:26.508Z,34.76
2019-02-04T02:49:02.794Z,34.80
2019-02-04T02:49:39.001Z,34.82
2019-02-04T02:50:15.380Z,34.87
2019-02-04T02:50:51.734Z,34.89
2019-02-04T02:51:28.255Z,34.91
2019-02-04T02:52:04.459Z,34.95
2019-02-04T02:52:40.594Z,34.93
2019-02-04T02:53:16.654Z,34.94
2019-02-04T02:53:52.839Z,34.92
2019-02-04T02:54:28.985Z,34.91
2019-02-04T02:55:05.294Z,34.92
2019-02-04T02:55:41.462Z,34.85
2019-02-04T02:56:17.696Z,34.83
2019-02-04T02:56:53.839Z,34.85
2019-02-04T02:57:29.972Z,34.85
2019-02-04T02:58:06.611Z,34.88
2019-02-04T02:58:42.897Z,34.89
2019-02-04T02:59:19.022Z,34.92
2019-02-04T02:59:55.109Z,34.88
2019-02-04T03:00:31.769Z,34.89
2019-02-04T03:01:07.860Z,34.87
2019-02-04T03:01:44.113Z,34.89
2019-02-04T03:02:20.263Z,34.92
2019-02-04T03:02:56.684Z,34.93
2019-02-04T03:03:32.795Z,34.96
2019-02-04T03:04:09.485Z,34.95
2019-02-04T03:04:45.744Z,34.90
2019-02-04T03:05:22.040Z,34.93
2019-02-04T03:05:58.423Z,34.93
2019-02-04T03:06:34.614Z,34.88
2019-02-04T03:07:10.778Z,34.78
2019-02-04T03:07:47.267Z,34.79
2019-02-04T03:08:23.530Z,34.81
2019-02-04T03:08:59.748Z,34.82
2019-02-04T03:09:35.768Z,34.84
2019-02-04T03:10:13.740Z,34.89
2019-02-04T03:10:49.873Z,34.90
2019-02-04T03:11:26.044Z,34.93
2019-02-04T03:12:02.465Z,34.89
2019-02-04T03:12:38.597Z,34.85
2019-02-04T03:13:14.987Z,34.82
2019-02-04T03:13:51.026Z,34.81
2019-02-04T03:14:27.289Z,34.77
2019-02-04T03:15:03.411Z,34.80
2019-02-04T03:15:39.583Z,34.81
2019-02-04T03:16:15.783Z,34.83
2019-02-04T03:16:52.109Z,34.89
2019-02-04T03:17:28.493Z,34.91
2019-02-04T03:18:04.654Z,34.88
2019-02-04T03:18:40.935Z,34.87
2019-02-04T03:19:17.157Z,34.91
2019-02-04T03:19:53.340Z,34.88
2019-02-04T03:20:29.481Z,34.91
2019-02-04T03:21:05.588Z,34.92
2019-02-04T03:21:41.863Z,34.93
2019-02-04T03:22:18.040Z,34.90
2019-02-04T03:22:54.335Z,34.93
2019-02-04T03:23:30.896Z,34.92
2019-02-04T03:24:06.927Z,34.92
2019-02-04T03:24:43.058Z,34.90
2019-02-04T03:25:19.374Z,34.90
2019-02-04T03:25:55.635Z,34.90
2019-02-04T03:26:31.834Z,34.91
2019-02-04T03:27:08.002Z,34.91
2019-02-04T03:27:44.338Z,34.93
2019-02-04T03:28:20.431Z,34.97
2019-02-04T03:28:56.566Z,34.98
2019-02-04T03:29:32.811Z,35.02
2019-02-04T03:30:12.736Z,35.06
2019-02-04T03:30:48.947Z,35.04
2019-02-04T03:31:25.034Z,35.10
2019-02-04T03:32:01.253Z,35.12
2019-02-04T03:32:37.352Z,35.15
2019-02-04T03:33:13.542Z,35.16
2019-02-04T03:33:50.176Z,35.20
2019-02-04T03:34:26.519Z,35.22
2019-02-04T03:35:02.782Z,35.24
2019-02-04T03:35:38.953Z,35.23
2019-02-04T03:36:15.172Z,35.24
2019-02-04T03:36:51.268Z,35.24
2019-02-04T03:37:27.400Z,35.29
2019-02-04T03:38:03.628Z,35.31
2019-02-04T03:38:39.801Z,35.31
2019-02-04T03:39:16.033Z,35.33
2019-02-04T03:39:52.399Z,35.34
2019-02-04T03:40:30.235Z,35.35
2019-02-04T03:41:06.331Z,35.39
2019-02-04T03:41:42.524Z,35.41
2019-02-04T03:42:18.724Z,35.40
2019-02-04T03:42:54.944Z,35.39
2019-02-04T03:43:31.233Z,35.37
2019-02-04T03:44:07.594Z,35.41
2019-02-04T03:44:43.656Z,35.35
2019-02-04T03:45:20.054Z,35.35
2019-02-04T03:45:56.071Z,35.35
2019-02-04T03:46:32.179Z,35.34
2019-02-04T03:47:08.790Z,35.34
2019-02-04T03:47:45.104Z,35.33
2019-02-04T03:48:21.225Z,35.34
2019-02-04T03:48:57.507Z,35.37
2019-02-04T03:49:33.546Z,35.41
2019-02-04T03:50:10.810Z,35.43
2019-02-04T03:50:47.081Z,35.47
2019-02-04T03:51:23.447Z,35.49
2019-02-04T03:51:59.576Z,35.51
2019-02-04T03:52:35.743Z,35.52
2019-02-04T03:53:11.997Z,35.52
2019-02-04T03:53:48.232Z,35.52
2019-02-04T03:54:24.876Z,35.51
2019-02-04T03:55:01.060Z,35.51
2019-02-04T03:55:37.156Z,35.47
2019-02-04T03:56:13.314Z,35.45
2019-02-04T03:56:49.400Z,35.45
2019-02-04T03:57:25.443Z,35.36
2019-02-04T03:58:01.581Z,35.33
2019-02-04T03:58:37.628Z,35.29
2019-02-04T03:59:14.197Z,35.26
2019-02-04T03:59:50.414Z,35.16
2019-02-04T04:00:31.437Z,35.17
2019-02-04T04:01:07.588Z,35.11
2019-02-04T04:01:43.892Z,35.14
2019-02-04T04:02:20.026Z,35.15
2019-02-04T04:02:56.177Z,35.18
2019-02-04T04:03:32.808Z,35.21
2019-02-04T04:04:08.918Z,35.21
2019-02-04T04:04:45.458Z,35.24
2019-02-04T04:05:21.641Z,35.26
2019-02-04T04:05:57.816Z,35.24
2019-02-04T04:06:34.036Z,35.27
2019-02-04T04:07:10.345Z,35.25
2019-02-04T04:07:46.517Z,35.27
2019-02-04T04:08:22.678Z,35.29
2019-02-04T04:08:59.052Z,35.32
2019-02-04T04:09:35.123Z,35.33
2019-02-04T04:10:11.862Z,35.36
2019-02-04T04:10:48.181Z,35.39
2019-02-04T04:11:24.447Z,35.43
2019-02-04T04:12:00.617Z,35.44
2019-02-04T04:12:36.918Z,35.47
2019-02-04T04:13:13.154Z,35.52
2019-02-04T04:13:49.801Z,35.55
2019-02-04T04:14:26.021Z,35.58
2019-02-04T04:15:02.506Z,35.57
2019-02-04T04:15:38.540Z,35.60
2019-02-04T04:16:14.707Z,35.58
2019-02-04T04:16:50.798Z,35.55
2019-02-04T04:17:27.020Z,35.59
2019-02-04T04:18:03.217Z,35.54
2019-02-04T04:18:39.331Z,35.51
2019-02-04T04:19:15.473Z,35.48
2019-02-04T04:19:51.803Z,35.49
2019-02-04T04:20:28.020Z,35.50
2019-02-04T04:21:04.228Z,35.53
2019-02-04T04:21:40.337Z,35.53
2019-02-04T04:22:16.542Z,35.50
2019-02-04T04:22:52.731Z,35.50
2019-02-04T04:23:28.928Z,35.43
2019-02-04T04:24:05.356Z,35.47
2019-02-04T04:24:41.663Z,35.48
2019-02-04T04:25:18.476Z,35.49
2019-02-04T04:25:54.714Z,35.47
2019-02-04T04:26:31.295Z,35.50
2019-02-04T04:27:07.556Z,35.52
2019-02-04T04:27:43.778Z,35.56
2019-02-04T04:28:20.178Z,35.56
2019-02-04T04:28:56.524Z,35.62
2019-02-04T04:29:32.720Z,35.65
2019-02-04T04:30:11.729Z,35.67
2019-02-04T04:30:47.947Z,35.69
2019-02-04T04:31:24.044Z,35.71
2019-02-04T04:32:00.180Z,35.71
2019-02-04T04:32:36.196Z,35.73
2019-02-04T04:33:12.457Z,35.74
2019-02-04T04:33:48.654Z,35.73
2019-02-04T04:34:24.925Z,35.71
2019-02-04T04:35:01.144Z,35.74
2019-02-04T04:35:37.667Z,35.77
2019-02-04T04:36:13.816Z,35.71
2019-02-04T04:36:50.241Z,35.68
2019-02-04T04:37:26.362Z,35.67
2019-02-04T04:38:02.549Z,35.67
2019-02-04T04:38:38.880Z,35.69
2019-02-04T04:39:15.028Z,35.72
2019-02-04T04:39:51.111Z,35.69
2019-02-04T04:40:27.081Z,35.72
2019-02-04T04:41:03.392Z,35.73
2019-02-04T04:41:39.590Z,35.75
2019-02-04T04:42:15.849Z,35.74
2019-02-04T04:42:52.285Z,35.78
2019-02-04T04:43:28.417Z,35.78
2019-02-04T04:44:04.872Z,35.78
2019-02-04T04:44:41.065Z,35.79
2019-02-04T04:45:19.459Z,35.82
2019-02-04T04:45:56.046Z,35.84
2019-02-04T04:46:32.290Z,35.85
2019-02-04T04:47:08.478Z,35.81
2019-02-04T04:47:44.699Z,35.81
2019-02-04T04:48:26.750Z,35.85
2019-02-04T04:48:58.870Z,35.84
2019-02-04T04:49:35.176Z,35.84
2019-02-04T04:50:11.543Z,35.80
2019-02-04T04:50:47.727Z,35.76
2019-02-04T04:51:23.972Z,35.78
2019-02-04T04:52:00.328Z,35.78
2019-02-04T04:52:36.503Z,35.81
2019-02-04T04:53:12.840Z,35.79
2019-02-04T04:53:49.028Z,35.82
2019-02-04T04:54:25.077Z,35.85
2019-02-04T04:55:01.457Z,35.86
2019-02-04T04:55:37.768Z,35.88
2019-02-04T04:56:14.394Z,35.86
2019-02-04T04:56:50.470Z,35.86
2019-02-04T04:57:26.863Z,35.87
2019-02-04T04:58:03.107Z,35.92
2019-02-04T04:58:40.764Z,35.94
2019-02-04T04:59:16.886Z,35.95
2019-02-04T04:59:52.974Z,35.93
2019-02-04T05:00:31.206Z,35.93
2019-02-04T05:01:07.297Z,35.88
2019-02-04T05:01:43.443Z,35.92
2019-02-04T05:02:19.759Z,35.95
2019-02-04T05:02:56.039Z,35.96
2019-02-04T05:03:32.189Z,35.97
2019-02-04T05:04:08.445Z,35.98
2019-02-04T05:04:44.799Z,36.00
2019-02-04T05:05:20.907Z,36.04
2019-02-04T05:05:57.239Z,36.04
2019-02-04T05:06:33.757Z,36.08
2019-02-04T05:07:10.032Z,36.09
2019-02-04T05:07:46.500Z,36.10
2019-02-04T05:08:22.611Z,36.10
2019-02-04T05:08:58.919Z,36.13
2019-02-04T05:09:35.294Z,36.07
2019-02-04T05:10:13.277Z,36.06
2019-02-04T05:10:49.441Z,36.07
2019-02-04T05:11:25.723Z,36.09
2019-02-04T05:12:01.838Z,36.06
2019-02-04T05:12:38.107Z,36.08
2019-02-04T05:13:14.281Z,36.09
2019-02-04T05:13:50.392Z,36.09
2019-02-04T05:14:26.518Z,36.09
2019-02-04T05:15:02.633Z,36.07
2019-02-04T05:15:38.796Z,36.06
2019-02-04T05:16:15.079Z,36.06
2019-02-04T05:16:51.496Z,36.04
2019-02-04T05:17:27.628Z,36.05
2019-02-04T05:18:04.057Z,36.06
2019-02-04T05:18:40.433Z,36.06
2019-02-04T05:19:16.588Z,36.07
2019-02-04T05:19:52.670Z,36.08
2019-02-04T05:20:28.946Z,36.11
2019-02-04T05:21:05.200Z,36.13
2019-02-04T05:21:41.308Z,36.15
2019-02-04T05:22:17.447Z,36.13
2019-02-04T05:22:53.658Z,36.15
2019-02-04T05:23:29.924Z,36.16
2019-02-04T05:24:06.162Z,36.18
2019-02-04T05:24:42.807Z,36.18
2019-02-04T05:25:19.219Z,36.18
2019-02-04T05:25:55.320Z,36.15
2019-02-04T05:26:34.355Z,36.14
2019-02-04T05:27:10.637Z,36.14
2019-02-04T05:27:46.951Z,36.17
2019-02-04T05:28:23.248Z,36.18
2019-02-04T05:28:59.332Z,36.19
2019-02-04T05:29:35.533Z,36.18
2019-02-04T05:30:13.902Z,36.15
2019-02-04T05:30:50.297Z,36.16
2019-02-04T05:31:26.611Z,36.16
2019-02-04T05:32:02.814Z,36.16
2019-02-04T05:32:38.995Z,36.10
2019-02-04T05:33:15.256Z,36.10
2019-02-04T05:33:51.465Z,36.13
2019-02-04T05:34:27.803Z,36.14
2019-02-04T05:35:03.905Z,36.15
2019-02-04T05:35:40.195Z,36.16
2019-02-04T05:36:16.357Z,36.15
2019-02-04T05:36:52.499Z,36.16
2019-02-04T05:37:29.076Z,36.16
2019-02-04T05:38:05.364Z,36.16
2019-02-04T05:38:41.547Z,36.16
2019-02-04T05:39:17.836Z,36.16
2019-02-04T05:39:54.108Z,36.18
2019-02-04T05:40:30.431Z,36.22
2019-02-04T05:41:06.655Z,36.20
2019-02-04T05:41:43.121Z,36.22
2019-02-04T05:42:19.392Z,36.20
2019-02-04T05:42:55.527Z,36.22
2019-02-04T05:43:31.701Z,36.23
2019-02-04T05:44:07.855Z,36.24
2019-02-04T05:44:43.958Z,36.23
2019-02-04T05:45:20.858Z,36.23
2019-02-04T05:45:57.199Z,36.23
2019-02-04T05:46:33.385Z,36.25
2019-02-04T05:47:09.666Z,36.26
2019-02-04T05:47:46.059Z,36.25
2019-02-04T05:48:22.427Z,36.28
2019-02-04T05:48:58.772Z,36.30
2019-02-04T05:49:34.893Z,36.33
2019-02-04T05:50:13.423Z,36.36
2019-02-04T05:50:49.542Z,36.39
2019-02-04T05:51:25.700Z,36.42
2019-02-04T05:52:01.939Z,36.44
2019-02-04T05:52:38.060Z,36.47
2019-02-04T05:53:14.321Z,36.51
2019-02-04T05:53:50.413Z,36.42
2019-02-04T05:54:26.760Z,36.35
2019-02-04T05:55:03.056Z,36.33
2019-02-04T05:55:39.163Z,36.29
2019-02-04T05:56:15.354Z,36.25
2019-02-04T05:56:51.452Z,36.14
2019-02-04T05:57:27.681Z,36.03
2019-02-04T05:58:04.180Z,35.95
2019-02-04T05:58:40.471Z,35.88
2019-02-04T05:59:16.823Z,35.82
2019-02-04T05:59:52.972Z,35.77
2019-02-04T06:00:54.616Z,35.75
2019-02-04T06:01:30.887Z,35.71
2019-02-04T06:02:09.428Z,35.60
2019-02-04T06:02:45.533Z,35.54
2019-02-04T06:03:21.801Z,35.54
2019-02-04T06:03:57.909Z,35.55
2019-02-04T06:04:34.107Z,35.49
2019-02-04T06:05:11.767Z,35.43
2019-02-04T06:05:47.891Z,35.39
2019-02-04T06:06:24.155Z,35.33
2019-02-04T06:07:00.429Z,35.29
2019-02-04T06:07:36.631Z,35.26
2019-02-04T06:08:12.976Z,35.23
2019-02-04T06:08:49.017Z,35.19
2019-02-04T06:09:25.231Z,35.16
2019-02-04T06:10:01.297Z,35.14
2019-02-04T06:10:37.519Z,35.09
2019-02-04T06:11:13.657Z,35.06
2019-02-04T06:11:50.113Z,35.04
2019-02-04T06:12:26.263Z,34.96
2019-02-04T06:13:02.678Z,34.95
2019-02-04T06:13:38.942Z,34.91
2019-02-04T06:14:15.207Z,34.87
2019-02-04T06:14:51.551Z,34.84
2019-02-04T06:15:27.784Z,34.82
2019-02-04T06:16:04.020Z,34.80
2019-02-04T06:16:40.127Z,34.82
2019-02-04T06:17:18.957Z,34.82
2019-02-04T06:17:55.325Z,34.79
2019-02-04T06:18:31.534Z,34.77
2019-02-04T06:19:07.656Z,34.75
2019-02-04T06:19:43.866Z,34.71
2019-02-04T06:20:22.048Z,34.69
2019-02-04T06:20:58.606Z,34.67
2019-02-04T06:21:34.840Z,34.63
2019-02-04T06:22:11.143Z,34.61
2019-02-04T06:22:47.343Z,34.59
2019-02-04T06:23:23.560Z,34.56
2019-02-04T06:23:59.731Z,34.54
2019-02-04T06:24:35.834Z,34.52
2019-02-04T06:25:12.153Z,34.51
2019-02-04T06:25:48.245Z,34.49
2019-02-04T06:26:24.492Z,34.47
2019-02-04T06:27:00.544Z,34.45
2019-02-04T06:27:36.827Z,34.43
2019-02-04T06:28:12.965Z,34.42
2019-02-04T06:28:49.248Z,34.43
2019-02-04T06:29:25.367Z,34.42
2019-02-04T06:30:01.538Z,34.39
2019-02-04T06:30:37.889Z,34.41
2019-02-04T06:31:13.978Z,34.39
2019-02-04T06:31:50.028Z,34.39
2019-02-04T06:32:26.666Z,34.39
2019-02-04T06:33:02.865Z,34.41
2019-02-04T06:33:39.354Z,34.46
2019-02-04T06:34:15.506Z,34.51
2019-02-04T06:34:51.729Z,34.56
2019-02-04T06:35:27.915Z,34.57
2019-02-04T06:36:04.113Z,34.61
2019-02-04T06:36:40.383Z,34.65
2019-02-04T06:37:16.498Z,34.64
2019-02-04T06:37:52.575Z,34.70
2019-02-04T06:38:28.841Z,34.78
2019-02-04T06:39:06.419Z,34.83
2019-02-04T06:39:42.535Z,34.88
2019-02-04T06:40:18.817Z,34.91
2019-02-04T06:40:54.880Z,34.96
2019-02-04T06:41:30.983Z,35.04
2019-02-04T06:42:07.216Z,35.12
2019-02-04T06:42:43.749Z,35.17
2019-02-04T06:43:19.827Z,35.22
2019-02-04T06:43:56.408Z,35.27
2019-02-04T06:44:32.569Z,35.32
2019-02-04T06:45:10.335Z,35.35
2019-02-04T06:45:46.641Z,35.39
2019-02-04T06:46:22.905Z,35.44
2019-02-04T06:46:59.034Z,35.49
2019-02-04T06:47:35.153Z,35.51
2019-02-04T06:48:11.411Z,35.53
2019-02-04T06:48:47.496Z,35.53
2019-02-04T06:49:23.683Z,35.57
2019-02-04T06:49:59.749Z,35.56
2019-02-04T06:50:35.885Z,35.57
2019-02-04T06:51:12.090Z,35.58
2019-02-04T06:51:48.241Z,35.59
2019-02-04T06:52:24.575Z,35.62
2019-02-04T06:53:00.699Z,35.62
2019-02-04T06:53:36.830Z,35.65
2019-02-04T06:54:13.232Z,35.65
2019-02-04T06:54:49.413Z,35.66
2019-02-04T06:55:28.604Z,35.67
2019-02-04T06:56:04.742Z,35.68
2019-02-04T06:56:41.008Z,35.71
2019-02-04T06:57:17.221Z,35.74
2019-02-04T06:57:53.390Z,35.77
2019-02-04T06:58:29.400Z,35.81
2019-02-04T06:59:05.934Z,35.85
2019-02-04T06:59:42.245Z,35.88
2019-02-04T07:00:18.885Z,35.89
2019-02-04T07:00:55.031Z,35.91
2019-02-04T07:01:31.169Z,35.92
2019-02-04T07:02:07.616Z,35.95
2019-02-04T07:02:43.903Z,35.99
2019-02-04T07:03:20.045Z,36.01
2019-02-04T07:03:56.341Z,36.00
2019-02-04T07:04:32.932Z,36.02
2019-02-04T07:05:09.227Z,36.06
2019-02-04T07:05:45.554Z,36.10
2019-02-04T07:06:21.656Z,36.10
2019-02-04T07:06:57.941Z,36.13
2019-02-04T07:07:34.035Z,36.16
2019-02-04T07:08:10.271Z,36.20
2019-02-04T07:08:46.594Z,36.23
2019-02-04T07:09:22.679Z,36.23
2019-02-04T07:09:58.909Z,36.22
2019-02-04T07:10:35.229Z,36.22
2019-02-04T07:11:11.359Z,36.23
2019-02-04T07:11:47.546Z,36.22
2019-02-04T07:12:23.854Z,36.19
2019-02-04T07:13:00.104Z,36.19
2019-02-04T07:13:36.186Z,36.18
2019-02-04T07:14:12.351Z,36.16
2019-02-04T07:14:48.358Z,36.16
2019-02-04T07:15:24.575Z,36.14
2019-02-04T07:16:00.885Z,36.15
2019-02-04T07:16:37.101Z,36.14
2019-02-04T07:17:13.795Z,36.16
2019-02-04T07:17:50.093Z,36.17
2019-02-04T07:18:26.200Z,36.18
2019-02-04T07:19:02.366Z,36.18
2019-02-04T07:19:38.536Z,36.20
2019-02-04T07:20:20.346Z,36.23
2019-02-04T07:20:56.544Z,36.22
2019-02-04T07:21:32.701Z,36.22
2019-02-04T07:22:09.406Z,36.23
2019-02-04T07:22:45.442Z,36.25
2019-02-04T07:23:21.674Z,36.26
2019-02-04T07:23:57.788Z,36.27
2019-02-04T07:24:42.506Z,36.31
2019-02-04T07:25:13.218Z,36.23
2019-02-04T07:25:49.284Z,36.18
2019-02-04T07:26:25.970Z,36.11
2019-02-04T07:27:02.103Z,36.11
2019-02-04T07:27:38.362Z,36.15
2019-02-04T07:28:14.559Z,36.10
2019-02-04T07:28:51.453Z,36.13
2019-02-04T07:29:27.638Z,36.17
2019-02-04T07:30:03.667Z,36.16
2019-02-04T07:30:39.880Z,36.20
2019-02-04T07:31:16.274Z,36.24
2019-02-04T07:31:52.423Z,36.27
2019-02-04T07:32:28.591Z,36.31
2019-02-04T07:33:04.932Z,36.35
2019-02-04T07:33:41.209Z,36.35
2019-02-04T07:34:17.242Z,36.40
2019-02-04T07:34:53.286Z,36.44
2019-02-04T07:35:29.548Z,36.49
2019-02-04T07:36:05.674Z,36.45
2019-02-04T07:36:41.801Z,36.44
2019-02-04T07:37:18.100Z,36.47
2019-02-04T07:37:54.516Z,36.50
2019-02-04T07:38:30.748Z,36.52
2019-02-04T07:39:08.995Z,36.52
2019-02-04T07:39:45.024Z,36.57
2019-02-04T07:40:23.400Z,36.60
2019-02-04T07:40:59.687Z,36.57
2019-02-04T07:41:35.828Z,36.57
2019-02-04T07:42:12.069Z,36.52
2019-02-04T07:42:48.524Z,36.54
2019-02-04T07:43:24.775Z,36.57
2019-02-04T07:44:00.982Z,36.55
2019-02-04T07:44:37.134Z,36.47
2019-02-04T07:45:13.457Z,36.37
2019-02-04T07:45:49.579Z,36.35
2019-02-04T07:46:25.679Z,36.38
2019-02-04T07:47:01.882Z,36.38
2019-02-04T07:47:38.159Z,36.31
2019-02-04T07:48:14.719Z,36.27
2019-02-04T07:48:50.768Z,36.26